createdAt,value
2017-10-19T00:02:23.630Z,22.07
2017-10-19T00:04:52.650Z,22.77
2017-10-19T00:07:20.973Z,23.70
2017-10-19T00:09:49.235Z,23.80
2017-10-19T00:12:17.482Z,21.13
2017-10-19T00:14:45.753Z,19.97
2017-10-19T00:17:14.006Z,19.97
2017-10-19T00:19:43.027Z,19.73
2017-10-19T00:22:11.306Z,19.50
2017-10-19T00:24:39.558Z,19.50
2017-10-19T00:27:07.801Z,20.80
2017-10-19T00:29:36.366Z,22.00
2017-10-19T00:32:04.614Z,22.10
2017-10-19T00:34:32.868Z,23.93
2017-10-19T00:37:01.148Z,22.20
2017-10-19T00:39:29.407Z,21.20
2017-10-19T00:41:57.653Z,16.03
2017-10-19T00:44:26.082Z,15.03
2017-10-19T00:46:54.332Z,15.13
2017-10-19T00:49:22.588Z,18.50
2017-10-19T00:51:51.109Z,18.80
2017-10-19T00:54:20.126Z,21.70
2017-10-19T00:56:49.383Z,22.13
2017-10-19T00:59:17.657Z,21.97
2017-10-19T01:01:45.906Z,24.00
2017-10-19T01:04:14.157Z,23.70
2017-10-19T01:06:42.430Z,21.70
2017-10-19T01:09:10.686Z,21.70
2017-10-19T01:11:39.706Z,22.13
2017-10-19T01:14:08.412Z,20.83
2017-10-19T01:16:36.663Z,20.10
2017-10-19T01:19:04.914Z,20.50
2017-10-19T01:21:33.958Z,20.77
2017-10-19T01:24:02.213Z,18.80
2017-10-19T01:26:30.458Z,18.97
2017-10-19T01:28:58.733Z,15.60
2017-10-19T01:31:27.914Z,14.50
2017-10-19T01:33:56.164Z,14.27
2017-10-19T01:36:24.638Z,14.17
2017-10-19T01:38:52.890Z,14.80
2017-10-19T01:41:21.134Z,15.03
2017-10-19T01:43:49.415Z,11.67
2017-10-19T01:46:18.214Z,10.90
2017-10-19T01:48:46.465Z,11.73
2017-10-19T01:51:14.741Z,11.30
2017-10-19T01:53:43.019Z,12.67
2017-10-19T01:56:11.270Z,12.23
2017-10-19T01:58:39.844Z,11.40
2017-10-19T02:01:08.094Z,11.53
2017-10-19T02:03:36.357Z,12.23
2017-10-19T02:06:04.631Z,11.40
2017-10-19T02:08:33.646Z,12.37
2017-10-19T02:11:01.899Z,10.70
2017-10-19T02:13:30.178Z,11.33
2017-10-19T02:15:58.425Z,11.50
2017-10-19T02:18:26.674Z,12.63
2017-10-19T02:20:55.083Z,12.83
2017-10-19T02:23:23.338Z,11.47
2017-10-19T02:25:51.578Z,8.90
2017-10-19T02:28:20.169Z,9.13
2017-10-19T02:30:49.163Z,9.00
2017-10-19T02:33:17.403Z,10.20
2017-10-19T02:35:45.679Z,11.00
2017-10-19T02:38:13.964Z,10.37
2017-10-19T02:40:42.187Z,9.07
2017-10-19T02:43:10.715Z,10.20
2017-10-19T02:45:38.966Z,10.53
2017-10-19T02:48:07.851Z,10.87
2017-10-19T02:50:36.131Z,11.63
2017-10-19T02:53:04.379Z,11.57
2017-10-19T02:55:32.636Z,10.90
2017-10-19T02:58:00.911Z,11.07
2017-10-19T03:00:29.986Z,11.43
2017-10-19T03:02:58.236Z,13.03
2017-10-19T03:05:26.729Z,11.47
2017-10-19T03:07:54.991Z,10.90
2017-10-19T03:10:23.233Z,12.10
2017-10-19T03:12:51.515Z,11.80
2017-10-19T03:15:19.760Z,11.73
2017-10-19T03:17:48.011Z,14.60
2017-10-19T03:20:16.286Z,12.10
2017-10-19T03:22:44.538Z,12.40
2017-10-19T03:25:12.791Z,11.97
2017-10-19T03:27:41.807Z,12.83
2017-10-19T03:30:10.060Z,12.90
2017-10-19T03:32:38.311Z,12.33
2017-10-19T03:35:07.352Z,13.60
2017-10-19T03:37:35.610Z,14.40
2017-10-19T03:40:03.862Z,12.70
2017-10-19T03:42:32.896Z,11.70
2017-10-19T03:45:01.158Z,12.13
2017-10-19T03:47:29.410Z,12.37
2017-10-19T03:49:59.066Z,12.33
2017-10-19T03:52:27.317Z,13.40
2017-10-19T03:54:55.745Z,12.50
2017-10-19T03:57:24.028Z,13.33
2017-10-19T03:59:52.270Z,14.00
2017-10-19T04:02:20.528Z,13.37
2017-10-19T04:04:48.801Z,11.27
2017-10-19T04:07:17.045Z,11.67
2017-10-19T04:09:46.070Z,11.67
2017-10-19T04:12:14.421Z,10.50
2017-10-19T04:14:43.594Z,9.17
2017-10-19T04:17:11.822Z,9.60
2017-10-19T04:19:40.090Z,9.70
2017-10-19T04:22:08.333Z,9.83
2017-10-19T04:24:36.587Z,10.97
2017-10-19T04:27:04.883Z,12.50
2017-10-19T04:29:33.174Z,10.77
2017-10-19T04:32:01.427Z,11.40
2017-10-19T04:34:30.195Z,11.00
2017-10-19T04:36:58.462Z,12.10
2017-10-19T04:39:26.702Z,12.30
2017-10-19T04:41:55.742Z,11.00
2017-10-19T04:44:23.997Z,12.60
2017-10-19T04:46:52.246Z,11.70
2017-10-19T04:49:20.522Z,12.40
2017-10-19T04:51:49.114Z,12.40
2017-10-19T04:54:17.382Z,14.33
2017-10-19T04:56:46.423Z,13.40
2017-10-19T04:59:14.662Z,15.20
2017-10-19T05:01:43.687Z,14.80
2017-10-19T05:04:11.973Z,15.13
2017-10-19T05:06:40.227Z,12.70
2017-10-19T05:09:08.478Z,12.30
2017-10-19T05:11:36.754Z,13.90
2017-10-19T05:14:05.780Z,18.00
2017-10-19T05:16:34.299Z,16.83
2017-10-19T05:19:02.634Z,14.60
2017-10-19T05:21:30.921Z,16.30
2017-10-19T05:23:59.448Z,15.87
2017-10-19T05:26:27.708Z,13.63
2017-10-19T05:28:55.949Z,14.60
2017-10-19T05:31:24.206Z,14.10
2017-10-19T05:33:53.270Z,14.10
2017-10-19T05:36:21.715Z,11.77
2017-10-19T05:38:49.949Z,12.10
2017-10-19T05:41:18.391Z,12.00
2017-10-19T05:43:46.647Z,12.37
2017-10-19T05:46:14.894Z,12.87
2017-10-19T05:48:43.937Z,13.20
2017-10-19T05:51:12.186Z,11.40
2017-10-19T05:53:40.779Z,13.23
2017-10-19T05:56:09.947Z,14.03
2017-10-19T05:58:38.962Z,13.77
2017-10-19T06:01:07.219Z,14.80
2017-10-19T06:03:35.839Z,13.17
2017-10-19T06:06:04.089Z,13.07
2017-10-19T06:08:32.341Z,10.83
2017-10-19T06:11:00.609Z,11.10
2017-10-19T06:13:28.861Z,9.80
2017-10-19T06:15:57.133Z,10.40
2017-10-19T06:18:25.395Z,11.27
2017-10-19T06:20:53.639Z,12.00
2017-10-19T06:23:21.885Z,12.43
2017-10-19T06:25:50.461Z,12.37
2017-10-19T06:28:18.714Z,13.10
2017-10-19T06:30:46.957Z,13.53
2017-10-19T06:33:15.242Z,12.10
2017-10-19T06:35:43.499Z,13.67
2017-10-19T06:38:12.509Z,13.67
2017-10-19T06:40:40.785Z,13.30
2017-10-19T06:43:09.034Z,14.17
2017-10-19T06:45:38.060Z,13.33
2017-10-19T06:48:06.563Z,13.80
2017-10-19T06:50:34.814Z,12.67
2017-10-19T06:53:03.067Z,13.00
2017-10-19T06:55:32.403Z,12.97
2017-10-19T06:58:00.654Z,11.33
2017-10-19T07:00:29.684Z,12.80
2017-10-19T07:02:57.960Z,12.63
2017-10-19T07:05:26.206Z,12.60
2017-10-19T07:07:55.060Z,11.33
2017-10-19T07:10:23.502Z,11.20
2017-10-19T07:12:51.746Z,12.00
2017-10-19T07:15:20.769Z,12.07
2017-10-19T07:17:49.045Z,12.37
2017-10-19T07:20:17.294Z,12.03
2017-10-19T07:22:46.345Z,12.03
2017-10-19T07:25:14.723Z,12.33
2017-10-19T07:27:43.127Z,12.17
2017-10-19T07:30:11.367Z,12.87
2017-10-19T07:32:39.989Z,13.57
2017-10-19T07:35:08.294Z,12.80
2017-10-19T07:37:37.297Z,11.97
2017-10-19T07:40:05.590Z,12.40
2017-10-19T07:42:33.849Z,13.40
2017-10-19T07:45:02.107Z,13.07
2017-10-19T07:47:31.140Z,12.07
2017-10-19T07:49:59.390Z,11.40
2017-10-19T07:52:27.637Z,13.57
2017-10-19T07:54:56.290Z,12.23
2017-10-19T07:57:24.931Z,12.67
2017-10-19T07:59:53.956Z,14.10
2017-10-19T08:02:24.444Z,13.00
2017-10-19T08:04:52.701Z,11.83
2017-10-19T08:07:21.066Z,13.43
2017-10-19T08:09:49.323Z,13.23
2017-10-19T08:12:17.587Z,13.73
2017-10-19T08:14:45.848Z,12.70
2017-10-19T08:17:19.851Z,14.00
2017-10-19T08:19:48.866Z,13.00
2017-10-19T08:22:17.122Z,12.50
2017-10-19T08:24:46.307Z,13.00
2017-10-19T08:27:14.538Z,13.07
2017-10-19T08:29:42.796Z,13.30
2017-10-19T08:32:11.071Z,13.77
2017-10-19T08:34:39.327Z,13.50
2017-10-19T08:37:07.578Z,14.50
2017-10-19T08:39:35.897Z,13.50
2017-10-19T08:42:04.158Z,14.90
2017-10-19T08:44:32.416Z,16.93
2017-10-19T08:47:00.683Z,15.67
2017-10-19T08:49:28.931Z,15.30
2017-10-19T08:51:57.226Z,15.63
2017-10-19T08:54:25.503Z,15.27
2017-10-19T08:56:53.755Z,14.43
2017-10-19T08:59:22.395Z,15.60
2017-10-19T09:01:51.692Z,13.90
2017-10-19T09:04:20.728Z,14.60
2017-10-19T09:06:49.042Z,16.00
2017-10-19T09:09:17.321Z,14.87
2017-10-19T09:11:45.578Z,15.33
2017-10-19T09:14:13.828Z,14.50
2017-10-19T09:16:42.101Z,14.67
2017-10-19T09:19:10.355Z,15.37
2017-10-19T09:21:38.607Z,14.20
2017-10-19T09:24:07.472Z,14.03
2017-10-19T09:26:35.706Z,15.10
2017-10-19T09:29:03.970Z,15.40
2017-10-19T09:31:33.011Z,15.73
2017-10-19T09:34:01.267Z,14.80
2017-10-19T09:36:29.514Z,13.80
2017-10-19T09:38:58.568Z,13.80
2017-10-19T09:41:26.807Z,15.47
2017-10-19T09:43:55.065Z,14.27
2017-10-19T09:46:23.790Z,14.60
2017-10-19T09:48:52.057Z,15.83
2017-10-19T09:51:20.370Z,14.50
2017-10-19T09:53:48.620Z,14.07
2017-10-19T09:56:16.987Z,12.27
2017-10-19T09:58:45.241Z,14.00
2017-10-19T10:01:13.738Z,16.67
2017-10-19T10:03:41.996Z,16.40
2017-10-19T10:06:11.018Z,15.13
2017-10-19T10:08:39.510Z,13.07
2017-10-19T10:11:07.903Z,14.90
2017-10-19T10:13:37.123Z,14.30
2017-10-19T10:16:05.472Z,15.03
2017-10-19T10:18:35.107Z,15.63
2017-10-19T10:21:03.357Z,15.50
2017-10-19T10:23:31.749Z,14.60
2017-10-19T10:25:59.990Z,15.63
2017-10-19T10:28:28.242Z,17.20
2017-10-19T10:30:57.382Z,15.90
2017-10-19T10:33:25.700Z,16.17
2017-10-19T10:35:54.570Z,15.63
2017-10-19T10:38:24.023Z,17.00
2017-10-19T10:40:52.284Z,15.97
2017-10-19T10:43:21.311Z,16.20
2017-10-19T10:45:49.590Z,15.53
2017-10-19T10:48:17.864Z,15.20
2017-10-19T10:50:46.859Z,16.03
2017-10-19T10:53:15.238Z,15.30
2017-10-19T10:55:43.491Z,15.80
2017-10-19T10:58:11.738Z,15.00
2017-10-19T11:00:40.022Z,14.20
2017-10-19T11:03:08.281Z,15.37
2017-10-19T11:05:37.393Z,13.37
2017-10-19T11:08:05.670Z,19.13
2017-10-19T11:10:33.946Z,17.27
2017-10-19T11:13:02.191Z,15.60
2017-10-19T11:15:30.669Z,16.80
2017-10-19T11:17:58.932Z,17.30
2017-10-19T11:20:27.173Z,17.10
2017-10-19T11:22:55.469Z,15.93
2017-10-19T11:25:23.765Z,17.43
2017-10-19T11:27:52.013Z,15.30
2017-10-19T11:30:21.054Z,15.03
2017-10-19T11:32:49.302Z,15.73
2017-10-19T11:35:17.557Z,15.40
2017-10-19T11:37:45.907Z,16.17
2017-10-19T11:40:14.166Z,15.07
2017-10-19T11:42:42.458Z,16.77
2017-10-19T11:45:10.731Z,15.30
2017-10-19T11:47:38.998Z,15.20
2017-10-19T11:50:07.255Z,16.73
2017-10-19T11:52:35.554Z,15.40
2017-10-19T11:55:04.219Z,16.57
2017-10-19T11:57:32.477Z,15.97
2017-10-19T12:00:00.904Z,16.40
2017-10-19T12:02:29.319Z,15.93
2017-10-19T12:04:57.567Z,17.20
2017-10-19T12:07:25.871Z,18.40
2017-10-19T12:09:54.337Z,17.77
2017-10-19T12:12:22.594Z,21.87
2017-10-19T12:14:50.962Z,20.60
2017-10-19T12:17:19.196Z,18.67
2017-10-19T12:19:49.376Z,19.37
2017-10-19T12:22:17.724Z,18.20
2017-10-19T12:24:45.977Z,17.80
2017-10-19T12:27:14.227Z,18.73
2017-10-19T12:29:43.270Z,18.10
2017-10-19T12:32:11.514Z,17.20
2017-10-19T12:34:39.770Z,18.03
2017-10-19T12:37:08.054Z,17.37
2017-10-19T12:39:37.085Z,18.20
2017-10-19T12:42:05.326Z,18.23
2017-10-19T12:44:34.772Z,20.20
2017-10-19T12:47:03.078Z,17.47
2017-10-19T12:49:31.455Z,17.83
2017-10-19T12:52:00.129Z,17.67
2017-10-19T12:54:28.525Z,17.90
2017-10-19T12:56:56.770Z,19.50
2017-10-19T12:59:25.053Z,20.00
2017-10-19T13:01:53.298Z,18.60
2017-10-19T13:04:22.399Z,18.90
2017-10-19T13:06:51.722Z,20.53
2017-10-19T13:09:20.114Z,20.80
2017-10-19T13:11:48.361Z,20.53
2017-10-19T13:14:16.633Z,20.50
2017-10-19T13:16:44.893Z,21.40
2017-10-19T13:19:13.909Z,22.77
2017-10-19T13:21:42.190Z,20.83
2017-10-19T13:24:10.617Z,20.23
2017-10-19T13:26:38.867Z,21.30
2017-10-19T13:29:07.442Z,17.73
2017-10-19T13:31:36.678Z,18.97
2017-10-19T13:34:05.979Z,19.10
2017-10-19T13:36:34.254Z,17.53
2017-10-19T13:39:02.509Z,19.20
2017-10-19T13:41:30.879Z,19.10
2017-10-19T13:43:59.155Z,19.87
2017-10-19T13:46:27.398Z,18.03
2017-10-19T13:48:55.660Z,18.37
2017-10-19T13:51:24.767Z,17.07
2017-10-19T13:53:53.025Z,18.03
2017-10-19T13:56:23.232Z,18.47
2017-10-19T13:58:51.626Z,18.00
2017-10-19T14:01:20.646Z,19.20
2017-10-19T14:03:48.902Z,18.43
2017-10-19T14:06:17.413Z,20.20
2017-10-19T14:08:45.767Z,17.13
2017-10-19T14:11:14.114Z,17.57
2017-10-19T14:13:42.526Z,19.40
2017-10-19T14:16:11.546Z,20.13
2017-10-19T14:18:39.806Z,18.97
2017-10-19T14:21:08.127Z,19.60
2017-10-19T14:23:36.373Z,17.90
2017-10-19T14:26:04.888Z,18.30
2017-10-19T14:28:33.273Z,17.90
2017-10-19T14:31:02.714Z,17.80
2017-10-19T14:33:31.751Z,17.93
2017-10-19T14:36:00.434Z,19.00
2017-10-19T14:38:28.694Z,17.17
2017-10-19T14:40:57.122Z,18.23
2017-10-19T14:43:25.419Z,17.67
2017-10-19T14:45:53.684Z,18.50
2017-10-19T14:48:21.941Z,17.47
2017-10-19T14:50:50.228Z,16.80
2017-10-19T14:53:18.491Z,17.17
2017-10-19T14:55:46.855Z,17.83
2017-10-19T14:58:15.406Z,16.90
2017-10-19T15:00:43.858Z,17.03
2017-10-19T15:03:12.109Z,17.20
2017-10-19T15:05:40.383Z,16.87
2017-10-19T15:08:08.684Z,16.60
2017-10-19T15:10:36.940Z,16.03
2017-10-19T15:13:05.234Z,18.20
2017-10-19T15:15:33.702Z,17.53
2017-10-19T15:18:01.942Z,16.60
2017-10-19T15:20:30.406Z,16.43
2017-10-19T15:22:58.681Z,19.03
2017-10-19T15:25:27.034Z,18.83
2017-10-19T15:27:55.310Z,17.83
2017-10-19T15:30:23.807Z,18.50
2017-10-19T15:32:52.826Z,18.20
2017-10-19T15:35:21.132Z,16.60
2017-10-19T15:37:49.393Z,18.17
2017-10-19T15:40:17.638Z,17.73
2017-10-19T15:42:46.759Z,16.13
2017-10-19T15:45:15.034Z,18.67
2017-10-19T15:47:43.290Z,19.53
2017-10-19T15:50:11.590Z,17.67
2017-10-19T15:52:41.041Z,17.80
2017-10-19T15:55:09.290Z,18.90
2017-10-19T15:57:37.562Z,19.20
2017-10-19T16:00:05.879Z,19.57
2017-10-19T16:02:34.245Z,18.33
2017-10-19T16:05:02.694Z,19.23
2017-10-19T16:07:30.962Z,20.37
2017-10-19T16:09:59.578Z,19.70
2017-10-19T16:12:27.842Z,19.10
2017-10-19T16:14:56.149Z,21.20
2017-10-19T16:17:24.530Z,19.27
2017-10-19T16:19:52.969Z,20.17
2017-10-19T16:22:21.229Z,20.60
2017-10-19T16:24:49.570Z,19.77
2017-10-19T16:27:17.898Z,18.90
2017-10-19T16:29:46.199Z,18.60
2017-10-19T16:32:14.491Z,19.77
2017-10-19T16:34:45.977Z,21.27
2017-10-19T16:37:15.002Z,19.43
2017-10-19T16:39:43.250Z,20.30
2017-10-19T16:42:11.731Z,22.13
2017-10-19T16:44:40.082Z,20.77
2017-10-19T16:47:08.459Z,19.97
2017-10-19T16:49:36.940Z,18.10
2017-10-19T16:52:06.141Z,19.40
2017-10-19T16:54:34.550Z,18.40
2017-10-19T16:57:03.087Z,17.50
2017-10-19T16:59:32.086Z,18.30
2017-10-19T17:02:00.765Z,18.03
2017-10-19T17:04:29.298Z,19.30
2017-10-19T17:06:58.345Z,19.73
2017-10-19T17:09:28.395Z,19.90
2017-10-19T17:11:56.970Z,19.27
2017-10-19T17:14:25.274Z,20.30
2017-10-19T17:16:54.740Z,20.67
2017-10-19T17:19:24.882Z,20.53
2017-10-19T17:21:53.218Z,18.90
2017-10-19T17:24:22.908Z,19.77
2017-10-19T17:26:51.457Z,19.87
2017-10-19T17:29:20.726Z,19.90
2017-10-19T17:31:49.106Z,18.53
2017-10-19T17:34:17.992Z,18.10
2017-10-19T17:36:46.234Z,19.93
2017-10-19T17:39:16.730Z,17.00
2017-10-19T17:41:49.015Z,17.80
2017-10-19T17:44:18.457Z,19.17
2017-10-19T17:46:46.755Z,19.80
2017-10-19T17:49:15.522Z,20.40
2017-10-19T17:51:43.825Z,19.57
2017-10-19T17:54:17.200Z,18.90
2017-10-19T17:56:47.647Z,18.67
2017-10-19T17:59:16.185Z,20.43
2017-10-19T18:01:45.779Z,22.90
2017-10-19T18:04:15.381Z,27.67
2017-10-19T18:06:44.666Z,31.60
2017-10-19T18:09:13.068Z,22.90
2017-10-19T18:11:42.136Z,20.40
2017-10-19T18:14:10.601Z,19.63
2017-10-19T18:16:39.066Z,19.60
2017-10-19T18:19:07.363Z,19.83
2017-10-19T18:21:35.739Z,19.67
2017-10-19T18:24:04.151Z,20.20
2017-10-19T18:26:33.198Z,19.57
2017-10-19T18:29:01.488Z,19.57
2017-10-19T18:31:29.924Z,17.90
2017-10-19T18:34:00.394Z,19.50
2017-10-19T18:36:28.782Z,19.73
2017-10-19T18:38:57.259Z,19.70
2017-10-19T18:41:25.562Z,20.50
2017-10-19T18:43:54.871Z,19.40
2017-10-19T18:46:23.242Z,20.33
2017-10-19T18:51:36.638Z,20.67
2017-10-19T18:54:08.954Z,19.33
2017-10-19T18:56:38.631Z,20.83
2017-10-19T18:59:06.934Z,19.73
2017-10-19T19:01:35.302Z,20.57
2017-10-19T19:04:03.697Z,19.83
2017-10-19T19:06:32.046Z,19.50
2017-10-19T19:09:00.671Z,19.20
2017-10-19T19:11:30.451Z,18.70
2017-10-19T19:14:09.653Z,24.13
2017-10-19T19:19:19.449Z,17.23
2017-10-19T19:21:48.786Z,16.20
2017-10-19T19:24:17.130Z,16.97
2017-10-19T19:26:49.522Z,17.37
2017-10-19T19:29:19.731Z,18.10
2017-10-19T19:31:48.110Z,17.87
2017-10-19T19:34:17.492Z,17.73
2017-10-19T19:36:46.720Z,17.90
2017-10-19T19:39:15.758Z,16.20
2017-10-19T19:41:44.108Z,16.03
2017-10-19T19:44:13.126Z,19.10
2017-10-19T19:46:41.378Z,17.70
2017-10-19T19:49:09.860Z,19.17
2017-10-19T19:51:38.873Z,20.47
2017-10-19T19:54:08.354Z,20.13
2017-10-19T19:56:36.911Z,22.57
2017-10-19T19:59:06.116Z,20.30
2017-10-19T20:01:34.500Z,21.53
2017-10-19T20:04:04.751Z,21.00
2017-10-19T20:06:33.777Z,19.77
2017-10-19T20:09:02.115Z,21.90
2017-10-19T20:11:31.165Z,21.53
2017-10-19T20:14:00.082Z,22.70
2017-10-19T20:16:28.453Z,21.03
2017-10-19T20:18:56.934Z,21.33
2017-10-19T20:21:25.403Z,22.27
2017-10-19T20:23:53.660Z,21.60
2017-10-19T20:26:22.070Z,21.60
2017-10-19T20:28:50.334Z,23.20
2017-10-19T20:31:18.725Z,21.23
2017-10-19T20:33:47.135Z,22.07
2017-10-19T20:36:16.190Z,22.17
2017-10-19T20:38:44.539Z,25.80
2017-10-19T20:41:12.983Z,22.23
2017-10-19T20:43:42.576Z,21.73
2017-10-19T20:46:10.841Z,23.00
2017-10-19T20:48:39.260Z,21.60
2017-10-19T20:51:09.754Z,21.47
2017-10-19T20:53:39.118Z,22.37
2017-10-19T20:56:09.612Z,20.70
2017-10-19T20:58:38.637Z,21.20
2017-10-19T21:01:06.962Z,20.63
2017-10-19T21:03:35.302Z,20.57
2017-10-19T21:06:03.558Z,20.43
2017-10-19T21:08:31.829Z,21.90
2017-10-19T21:11:00.193Z,21.53
2017-10-19T21:13:29.210Z,20.93
2017-10-19T21:16:01.556Z,21.10
2017-10-19T21:18:30.573Z,19.13
2017-10-19T21:20:58.903Z,21.97
2017-10-19T21:23:27.240Z,20.20
2017-10-19T21:25:55.493Z,20.23
2017-10-19T21:28:23.754Z,19.97
2017-10-19T21:30:52.787Z,21.33
2017-10-19T21:33:21.134Z,21.77
2017-10-19T21:35:50.161Z,19.90
2017-10-19T21:38:18.506Z,20.50
2017-10-19T21:40:47.523Z,22.53
2017-10-19T21:43:18.310Z,21.83
2017-10-19T21:45:49.935Z,21.37
2017-10-19T21:48:18.183Z,20.53
2017-10-19T21:50:47.434Z,21.10
2017-10-19T21:53:15.713Z,21.17
2017-10-19T21:55:43.966Z,20.23
2017-10-19T21:58:12.220Z,22.17
2017-10-19T22:00:40.673Z,20.70
2017-10-19T22:03:09.687Z,23.50
2017-10-19T22:05:38.050Z,20.73
2017-10-19T22:08:07.159Z,21.07
2017-10-19T22:10:35.415Z,21.77
2017-10-19T22:13:04.428Z,21.10
2017-10-19T22:15:32.886Z,22.17
2017-10-19T22:18:01.146Z,21.10
2017-10-19T22:20:29.389Z,20.00
2017-10-19T22:22:57.686Z,20.60
2017-10-19T22:25:25.941Z,20.43
2017-10-19T22:27:54.193Z,21.80
2017-10-19T22:30:22.830Z,21.10
2017-10-19T22:32:51.078Z,21.70
2017-10-19T22:35:19.330Z,21.30
2017-10-19T22:37:47.607Z,20.50
2017-10-19T22:40:15.862Z,20.20
2017-10-19T22:42:44.874Z,20.50
2017-10-19T22:45:13.155Z,19.10
2017-10-19T22:47:41.410Z,20.00
2017-10-19T22:50:10.435Z,20.67
2017-10-19T22:52:38.890Z,20.30
2017-10-19T22:55:07.913Z,20.90
2017-10-19T22:57:36.162Z,22.63
2017-10-19T23:00:05.202Z,22.20
2017-10-19T23:02:33.453Z,20.40
2017-10-19T23:05:01.706Z,19.43
2017-10-19T23:07:30.792Z,19.80
2017-10-19T23:09:59.024Z,19.43
2017-10-19T23:12:27.277Z,19.97
2017-10-19T23:14:55.863Z,18.93
2017-10-19T23:17:24.998Z,20.83
2017-10-19T23:19:53.249Z,19.37
2017-10-19T23:22:21.522Z,18.37
2017-10-19T23:24:49.765Z,21.40
2017-10-19T23:27:18.040Z,20.53
2017-10-19T23:29:46.286Z,20.23
2017-10-19T23:32:14.553Z,19.60
2017-10-19T23:34:42.806Z,19.10
2017-10-19T23:37:11.124Z,20.67
2017-10-19T23:39:39.370Z,19.10
2017-10-19T23:42:07.627Z,18.30
2017-10-19T23:44:35.902Z,19.80
2017-10-19T23:47:04.162Z,19.60
2017-10-19T23:49:32.440Z,21.07
2017-10-19T23:52:01.472Z,19.60
2017-10-19T23:54:29.818Z,19.77
2017-10-19T23:56:58.074Z,20.53
2017-10-19T23:59:27.505Z,20.30
